createdAt,value
2018-08-13T00:02:11.540Z,18.14
2018-08-13T00:04:40.159Z,18.06
2018-08-13T00:07:08.838Z,18.04
2018-08-13T00:09:43.117Z,18.05
2018-08-13T00:12:13.248Z,18.05
2018-08-13T00:14:41.965Z,18.03
2018-08-13T00:17:10.685Z,17.81
2018-08-13T00:19:39.275Z,17.72
2018-08-13T00:22:07.966Z,17.80
2018-08-13T00:24:36.602Z,17.71
2018-08-13T00:27:05.242Z,17.61
2018-08-13T00:29:33.890Z,17.56
2018-08-13T00:32:02.556Z,17.51
2018-08-13T00:34:31.142Z,17.42
2018-08-13T00:36:59.797Z,17.33
2018-08-13T00:39:28.537Z,17.36
2018-08-13T00:41:57.222Z,17.31
2018-08-13T00:44:25.971Z,17.30
2018-08-13T00:46:54.649Z,17.23
2018-08-13T00:49:23.362Z,17.18
2018-08-13T00:51:52.014Z,17.16
2018-08-13T00:54:20.657Z,17.11
2018-08-13T00:56:49.302Z,16.98
2018-08-13T00:59:17.986Z,17.06
2018-08-13T01:01:46.718Z,17.02
2018-08-13T01:04:15.406Z,16.93
2018-08-13T01:06:44.138Z,17.04
2018-08-13T01:09:12.734Z,17.15
2018-08-13T01:11:41.391Z,17.22
2018-08-13T01:14:10.166Z,17.14
2018-08-13T01:16:38.825Z,17.10
2018-08-13T01:19:07.480Z,17.11
2018-08-13T01:21:36.117Z,17.13
2018-08-13T01:24:04.782Z,17.10
2018-08-13T01:26:33.414Z,17.12
2018-08-13T01:29:02.043Z,17.10
2018-08-13T01:31:30.756Z,17.02
2018-08-13T01:33:59.471Z,16.99
2018-08-13T01:36:28.170Z,16.89
2018-08-13T01:38:56.925Z,16.82
2018-08-13T01:41:25.625Z,16.81
2018-08-13T01:43:54.367Z,16.72
2018-08-13T01:46:23.107Z,16.62
2018-08-13T01:48:51.796Z,16.69
2018-08-13T01:51:20.414Z,16.69
2018-08-13T01:53:49.115Z,16.81
2018-08-13T01:56:17.735Z,16.85
2018-08-13T01:58:46.450Z,16.80
2018-08-13T02:01:15.123Z,16.83
2018-08-13T02:03:43.807Z,16.79
2018-08-13T02:06:12.486Z,16.90
2018-08-13T02:08:41.125Z,16.80
2018-08-13T02:11:09.823Z,16.78
2018-08-13T02:13:38.553Z,16.77
2018-08-13T02:16:07.224Z,16.67
2018-08-13T02:18:35.909Z,16.80
2018-08-13T02:21:04.630Z,16.61
2018-08-13T02:23:33.304Z,16.51
2018-08-13T02:26:01.938Z,16.45
2018-08-13T02:28:30.644Z,16.48
2018-08-13T02:30:59.298Z,16.47
2018-08-13T02:33:28.043Z,16.43
2018-08-13T02:35:56.654Z,16.30
2018-08-13T02:38:25.286Z,16.23
2018-08-13T02:40:54.015Z,16.28
2018-08-13T02:43:22.711Z,16.28
2018-08-13T02:45:51.380Z,16.24
2018-08-13T02:48:20.028Z,16.16
2018-08-13T02:50:48.649Z,16.08
2018-08-13T02:53:17.309Z,16.02
2018-08-13T02:55:45.947Z,15.97
2018-08-13T02:58:14.643Z,15.92
2018-08-13T03:00:43.311Z,15.82
2018-08-13T03:03:12.031Z,15.76
2018-08-13T03:05:40.801Z,15.72
2018-08-13T03:08:09.432Z,15.72
2018-08-13T03:10:38.144Z,15.65
2018-08-13T03:13:06.986Z,15.71
2018-08-13T03:15:35.628Z,15.77
2018-08-13T03:18:04.407Z,15.80
2018-08-13T03:20:33.027Z,15.81
2018-08-13T03:23:01.720Z,15.71
2018-08-13T03:25:30.437Z,15.82
2018-08-13T03:27:59.079Z,15.84
2018-08-13T03:30:27.824Z,15.89
2018-08-13T03:32:56.470Z,15.88
2018-08-13T03:35:25.122Z,15.77
2018-08-13T03:37:53.777Z,15.70
2018-08-13T03:40:22.495Z,15.68
2018-08-13T03:42:51.211Z,15.76
2018-08-13T03:45:19.834Z,15.89
2018-08-13T03:47:48.476Z,15.83
2018-08-13T03:50:17.119Z,15.81
2018-08-13T03:52:45.815Z,15.83
2018-08-13T03:55:14.515Z,15.85
2018-08-13T03:57:43.453Z,15.84
2018-08-13T04:00:14.462Z,15.83
2018-08-13T04:02:43.490Z,15.97
2018-08-13T04:05:12.751Z,16.08
2018-08-13T04:07:41.491Z,16.06
2018-08-13T04:10:11.622Z,16.00
2018-08-13T04:12:42.596Z,15.97
2018-08-13T04:15:12.708Z,16.20
2018-08-13T04:17:41.535Z,15.19
2018-08-13T04:20:11.355Z,16.61
2018-08-13T04:22:40.056Z,16.62
2018-08-13T04:25:09.810Z,16.72
2018-08-13T04:27:39.046Z,16.78
2018-08-13T04:30:13.023Z,16.68
2018-08-13T04:32:42.432Z,17.23
2018-08-13T04:35:11.998Z,18.65
2018-08-13T04:37:41.799Z,19.59
2018-08-13T04:40:12.598Z,20.17
2018-08-13T04:42:42.189Z,20.31
2018-08-13T04:45:11.363Z,20.30
2018-08-13T04:47:40.466Z,20.52
2018-08-13T04:50:11.038Z,20.63
2018-08-13T04:52:39.658Z,20.69
2018-08-13T04:55:09.371Z,20.62
2018-08-13T04:57:38.020Z,20.44
2018-08-13T05:00:08.302Z,20.33
2018-08-13T05:02:37.030Z,20.43
2018-08-13T05:05:06.758Z,20.80
2018-08-13T05:07:35.529Z,20.97
2018-08-13T05:10:04.751Z,21.43
2018-08-13T05:12:33.367Z,22.02
2018-08-13T05:15:02.090Z,22.01
2018-08-13T05:17:30.827Z,22.16
2018-08-13T05:19:59.503Z,22.10
2018-08-13T05:22:28.191Z,22.29
2018-08-13T05:24:56.890Z,22.63
2018-08-13T05:27:25.555Z,22.73
2018-08-13T05:29:54.272Z,22.77
2018-08-13T05:32:22.936Z,23.01
2018-08-13T05:34:51.606Z,23.23
2018-08-13T05:37:20.253Z,23.50
2018-08-13T05:39:48.982Z,23.61
2018-08-13T05:42:17.726Z,23.86
2018-08-13T05:44:46.387Z,23.67
2018-08-13T05:47:15.032Z,23.97
2018-08-13T05:49:43.674Z,24.11
2018-08-13T05:52:12.325Z,24.69
2018-08-13T05:54:41.019Z,24.88
2018-08-13T05:57:09.651Z,25.14
2018-08-13T05:59:38.338Z,25.19
2018-08-13T06:02:07.004Z,24.99
2018-08-13T06:04:35.773Z,25.07
2018-08-13T06:07:04.547Z,24.73
2018-08-13T06:09:33.222Z,24.73
2018-08-13T06:12:01.923Z,25.18
2018-08-13T06:14:30.590Z,25.13
2018-08-13T06:16:59.246Z,24.38
2018-08-13T06:19:27.998Z,24.22
2018-08-13T06:21:56.766Z,25.02
2018-08-13T06:24:25.547Z,25.28
2018-08-13T06:26:54.166Z,26.52
2018-08-13T06:29:22.902Z,26.75
2018-08-13T06:31:51.622Z,27.07
2018-08-13T06:34:20.312Z,26.45
2018-08-13T06:36:48.974Z,26.10
2018-08-13T06:39:17.663Z,26.44
2018-08-13T06:41:46.348Z,26.10
2018-08-13T06:44:15.005Z,25.99
2018-08-13T06:46:43.686Z,25.76
2018-08-13T06:49:12.384Z,26.33
2018-08-13T06:51:41.061Z,26.51
2018-08-13T06:54:09.712Z,25.92
2018-08-13T06:56:38.382Z,26.49
2018-08-13T06:59:07.136Z,26.07
2018-08-13T07:01:35.892Z,25.83
2018-08-13T07:04:04.583Z,26.43
2018-08-13T07:06:33.248Z,26.61
2018-08-13T07:09:01.926Z,27.07
2018-08-13T07:11:30.564Z,27.33
2018-08-13T07:13:59.202Z,27.74
2018-08-13T07:16:27.882Z,28.04
2018-08-13T07:18:56.541Z,28.26
2018-08-13T07:21:25.370Z,28.20
2018-08-13T07:23:53.972Z,28.08
2018-08-13T07:26:22.583Z,28.01
2018-08-13T07:28:51.226Z,28.29
2018-08-13T07:31:19.983Z,28.36
2018-08-13T07:33:48.673Z,28.50
2018-08-13T07:36:17.373Z,28.70
2018-08-13T07:38:46.126Z,28.61
2018-08-13T07:41:14.778Z,28.51
2018-08-13T07:43:43.432Z,28.92
2018-08-13T07:46:12.156Z,29.17
2018-08-13T07:48:40.812Z,28.57
2018-08-13T07:51:09.471Z,28.53
2018-08-13T07:53:38.095Z,28.56
2018-08-13T07:56:06.834Z,29.10
2018-08-13T07:58:35.459Z,29.15
2018-08-13T08:01:04.198Z,30.30
2018-08-13T08:03:32.855Z,30.21
2018-08-13T08:06:01.686Z,29.51
2018-08-13T08:08:30.378Z,29.59
2018-08-13T08:10:59.008Z,30.59
2018-08-13T08:13:27.683Z,31.04
2018-08-13T08:15:56.358Z,31.24
2018-08-13T08:18:25.061Z,30.62
2018-08-13T08:20:53.767Z,29.98
2018-08-13T08:23:22.396Z,30.71
2018-08-13T08:25:51.099Z,30.52
2018-08-13T08:28:19.882Z,29.81
2018-08-13T08:30:48.599Z,30.54
2018-08-13T08:33:17.283Z,30.43
2018-08-13T08:35:46.007Z,30.55
2018-08-13T08:38:14.737Z,31.16
2018-08-13T08:40:43.453Z,30.98
2018-08-13T08:43:12.128Z,30.98
2018-08-13T08:45:40.854Z,30.21
2018-08-13T08:48:09.942Z,30.25
2018-08-13T08:50:38.611Z,31.01
2018-08-13T08:53:07.258Z,31.17
2018-08-13T08:55:35.946Z,31.53
2018-08-13T08:58:04.623Z,30.84
2018-08-13T09:00:33.288Z,31.61
2018-08-13T09:03:02.056Z,32.02
2018-08-13T09:05:30.735Z,31.81
2018-08-13T09:07:59.530Z,31.57
2018-08-13T09:10:28.235Z,32.08
2018-08-13T09:12:56.875Z,31.70
2018-08-13T09:15:25.496Z,30.77
2018-08-13T09:18:09.642Z,30.62
2018-08-13T09:20:49.227Z,30.96
2018-08-13T09:23:28.790Z,31.20
2018-08-13T09:26:08.527Z,31.41
2018-08-13T09:28:48.236Z,31.47
2018-08-13T09:31:29.681Z,30.86
2018-08-13T09:34:40.293Z,29.84
2018-08-13T09:37:08.931Z,30.72
2018-08-13T09:39:37.615Z,31.33
2018-08-13T09:42:06.562Z,31.71
2018-08-13T09:44:35.235Z,32.43
2018-08-13T09:47:04.339Z,33.79
2018-08-13T09:49:32.993Z,32.73
2018-08-13T09:52:01.675Z,32.14
2018-08-13T09:54:30.399Z,31.66
2018-08-13T09:56:59.240Z,31.73
2018-08-13T09:59:27.940Z,31.93
2018-08-13T10:01:56.609Z,31.45
2018-08-13T10:04:25.270Z,31.75
2018-08-13T10:06:53.915Z,32.22
2018-08-13T10:09:22.641Z,32.30
2018-08-13T10:11:57.508Z,32.84
2018-08-13T10:14:26.199Z,32.16
2018-08-13T10:16:54.974Z,32.18
2018-08-13T10:19:23.650Z,31.82
2018-08-13T10:21:52.339Z,32.21
2018-08-13T10:24:21.090Z,32.10
2018-08-13T10:26:49.759Z,32.86
2018-08-13T10:29:18.475Z,33.31
2018-08-13T10:31:47.160Z,32.54
2018-08-13T10:34:15.809Z,32.58
2018-08-13T10:36:44.425Z,33.66
2018-08-13T10:39:13.201Z,33.88
2018-08-13T10:41:41.858Z,34.69
2018-08-13T10:44:10.669Z,33.24
2018-08-13T10:46:39.524Z,33.25
2018-08-13T10:49:08.587Z,33.49
2018-08-13T10:51:37.275Z,32.66
2018-08-13T10:54:06.040Z,33.22
2018-08-13T10:56:34.726Z,34.45
2018-08-13T10:59:03.495Z,34.17
2018-08-13T11:01:32.186Z,32.54
2018-08-13T11:04:00.890Z,32.72
2018-08-13T11:06:29.514Z,32.87
2018-08-13T11:08:58.138Z,33.26
2018-08-13T11:11:26.878Z,34.12
2018-08-13T11:13:55.553Z,33.45
2018-08-13T11:16:24.179Z,33.56
2018-08-13T11:18:53.234Z,33.43
2018-08-13T11:21:21.887Z,34.00
2018-08-13T11:23:50.507Z,34.39
2018-08-13T11:26:19.262Z,33.71
2018-08-13T11:28:48.005Z,33.27
2018-08-13T11:31:16.746Z,33.56
2018-08-13T11:33:45.462Z,33.75
2018-08-13T11:36:14.160Z,33.19
2018-08-13T11:38:42.870Z,33.05
2018-08-13T11:41:11.617Z,33.21
2018-08-13T11:43:40.349Z,33.97
2018-08-13T11:46:09.019Z,34.98
2018-08-13T11:48:37.676Z,35.35
2018-08-13T11:51:06.405Z,34.98
2018-08-13T11:53:35.096Z,35.01
2018-08-13T11:56:03.828Z,33.02
2018-08-13T11:58:32.522Z,33.33
2018-08-13T12:01:01.233Z,33.19
2018-08-13T12:03:30.903Z,33.18
2018-08-13T12:05:59.871Z,33.24
2018-08-13T12:08:28.620Z,33.41
2018-08-13T12:10:57.296Z,33.74
2018-08-13T12:13:25.960Z,34.29
2018-08-13T12:15:54.759Z,34.02
2018-08-13T12:18:23.435Z,33.62
2018-08-13T12:20:52.120Z,33.30
2018-08-13T12:23:20.777Z,33.17
2018-08-13T12:25:49.474Z,33.45
2018-08-13T12:28:18.257Z,33.41
2018-08-13T12:30:47.013Z,32.96
2018-08-13T12:33:15.737Z,32.46
2018-08-13T12:35:44.459Z,32.17
2018-08-13T12:38:13.217Z,32.71
2018-08-13T12:40:41.928Z,31.99
2018-08-13T12:43:10.578Z,32.57
2018-08-13T12:45:39.220Z,32.72
2018-08-13T12:48:08.000Z,32.71
2018-08-13T12:50:36.710Z,32.53
2018-08-13T12:53:05.460Z,31.99
2018-08-13T12:55:34.156Z,31.36
2018-08-13T12:58:02.915Z,30.92
2018-08-13T13:00:31.544Z,31.20
2018-08-13T13:03:00.221Z,31.46
2018-08-13T13:05:28.949Z,31.51
2018-08-13T13:07:57.592Z,31.74
2018-08-13T13:10:26.271Z,31.62
2018-08-13T13:12:54.958Z,31.85
2018-08-13T13:15:23.625Z,32.00
2018-08-13T13:17:52.585Z,31.51
2018-08-13T13:20:22.547Z,31.43
2018-08-13T13:22:51.875Z,31.26
2018-08-13T13:25:20.886Z,30.99
2018-08-13T13:27:49.562Z,30.55
2018-08-13T13:30:18.420Z,29.95
2018-08-13T13:32:47.181Z,30.05
2018-08-13T13:35:17.037Z,29.86
2018-08-13T13:37:45.720Z,29.77
2018-08-13T13:40:16.533Z,29.89
2018-08-13T13:42:45.327Z,29.88
2018-08-13T13:45:14.942Z,29.57
2018-08-13T13:47:43.635Z,29.50
2018-08-13T13:50:14.616Z,29.65
2018-08-13T13:52:43.312Z,29.83
2018-08-13T13:55:12.239Z,29.71
2018-08-13T13:57:41.048Z,29.74
2018-08-13T14:00:13.148Z,29.53
2018-08-13T14:02:41.838Z,29.46
2018-08-13T14:05:10.583Z,29.41
2018-08-13T14:07:39.256Z,29.40
2018-08-13T14:10:10.193Z,29.34
2018-08-13T14:12:38.819Z,29.41
2018-08-13T14:15:09.422Z,29.34
2018-08-13T14:17:38.200Z,29.25
2018-08-13T14:20:07.776Z,29.22
2018-08-13T14:22:36.410Z,29.09
2018-08-13T14:25:06.047Z,29.19
2018-08-13T14:27:34.767Z,28.05
2018-08-13T14:30:04.871Z,29.08
2018-08-13T14:32:33.507Z,29.13
2018-08-13T14:35:02.191Z,29.15
2018-08-13T14:37:30.887Z,29.05
2018-08-13T14:39:59.615Z,29.07
2018-08-13T14:42:28.258Z,28.77
2018-08-13T14:44:56.935Z,28.71
2018-08-13T14:47:25.579Z,28.78
2018-08-13T14:49:54.239Z,28.84
2018-08-13T14:52:22.890Z,28.90
2018-08-13T14:54:51.574Z,28.90
2018-08-13T14:57:20.223Z,28.87
2018-08-13T14:59:48.867Z,28.80
2018-08-13T15:02:17.494Z,28.89
2018-08-13T15:04:46.170Z,28.92
2018-08-13T15:07:14.827Z,28.87
2018-08-13T15:09:43.495Z,28.82
2018-08-13T15:12:12.134Z,28.77
2018-08-13T15:14:40.845Z,28.85
2018-08-13T15:17:09.590Z,28.84
2018-08-13T15:19:38.215Z,28.89
2018-08-13T15:22:06.956Z,28.90
2018-08-13T15:24:35.748Z,28.89
2018-08-13T15:27:04.598Z,28.78
2018-08-13T15:29:33.252Z,28.64
2018-08-13T15:32:01.899Z,28.60
2018-08-13T15:34:30.632Z,28.57
2018-08-13T15:36:59.295Z,28.66
2018-08-13T15:39:28.742Z,28.67
2018-08-13T15:41:57.605Z,28.65
2018-08-13T15:44:26.455Z,28.57
2018-08-13T15:46:55.180Z,28.54
2018-08-13T15:49:24.212Z,28.60
2018-08-13T15:51:53.051Z,28.58
2018-08-13T15:54:22.740Z,28.42
2018-08-13T15:56:51.740Z,28.47
2018-08-13T15:59:20.741Z,28.56
2018-08-13T16:01:49.504Z,28.52
2018-08-13T16:04:18.426Z,28.42
2018-08-13T16:06:47.303Z,28.34
2018-08-13T16:09:16.343Z,28.32
2018-08-13T16:11:45.217Z,28.31
2018-08-13T16:14:14.143Z,28.31
2018-08-13T16:16:42.999Z,28.18
2018-08-13T16:19:11.835Z,28.15
2018-08-13T16:21:40.720Z,28.17
2018-08-13T16:24:11.078Z,28.09
2018-08-13T16:26:40.113Z,28.02
2018-08-13T16:29:08.988Z,27.95
2018-08-13T16:31:37.904Z,27.89
2018-08-13T16:34:06.850Z,27.88
2018-08-13T16:36:36.128Z,27.80
2018-08-13T16:39:07.693Z,27.80
2018-08-13T16:41:36.644Z,27.77
2018-08-13T16:44:05.655Z,27.74
2018-08-13T16:46:34.498Z,27.73
2018-08-13T16:49:03.592Z,27.66
2018-08-13T16:51:32.736Z,27.61
2018-08-13T16:54:02.667Z,27.58
2018-08-13T16:56:31.570Z,27.50
2018-08-13T16:59:00.411Z,27.48
2018-08-13T17:01:30.190Z,27.42
2018-08-13T17:03:59.031Z,27.33
2018-08-13T17:06:27.979Z,27.26
2018-08-13T17:08:56.892Z,27.19
2018-08-13T17:11:29.786Z,27.10
2018-08-13T17:13:58.927Z,27.01
2018-08-13T17:16:27.675Z,26.92
2018-08-13T17:18:56.716Z,26.83
2018-08-13T17:21:25.571Z,26.71
2018-08-13T17:23:55.590Z,26.60
2018-08-13T17:26:24.474Z,26.51
2018-08-13T17:28:53.169Z,26.46
2018-08-13T17:31:21.818Z,26.41
2018-08-13T17:33:50.427Z,26.34
2018-08-13T17:36:19.091Z,26.26
2018-08-13T17:38:47.851Z,26.14
2018-08-13T17:41:16.510Z,26.03
2018-08-13T17:43:45.157Z,25.89
2018-08-13T17:46:13.838Z,25.88
2018-08-13T17:48:42.483Z,25.84
2018-08-13T17:51:11.106Z,25.78
2018-08-13T17:53:39.737Z,25.71
2018-08-13T17:56:08.465Z,25.61
2018-08-13T17:58:37.122Z,25.45
2018-08-13T18:01:05.889Z,25.30
2018-08-13T18:03:34.576Z,25.19
2018-08-13T18:06:03.227Z,25.14
2018-08-13T18:08:31.904Z,25.14
2018-08-13T18:11:00.597Z,25.10
2018-08-13T18:13:29.210Z,25.04
2018-08-13T18:15:57.878Z,24.94
2018-08-13T18:18:26.548Z,24.84
2018-08-13T18:20:55.234Z,24.77
2018-08-13T18:23:23.906Z,24.74
2018-08-13T18:25:52.564Z,24.77
2018-08-13T18:28:21.208Z,24.64
2018-08-13T18:30:49.837Z,24.58
2018-08-13T18:33:18.454Z,24.56
2018-08-13T18:35:47.085Z,24.43
2018-08-13T18:38:15.795Z,24.36
2018-08-13T18:40:44.458Z,24.41
2018-08-13T18:43:13.147Z,24.37
2018-08-13T18:45:41.811Z,24.32
2018-08-13T18:48:10.495Z,24.25
2018-08-13T18:50:39.130Z,24.21
2018-08-13T18:53:07.797Z,24.16
2018-08-13T18:55:36.524Z,24.13
2018-08-13T18:58:05.248Z,24.05
2018-08-13T19:00:33.933Z,24.01
2018-08-13T19:03:03.028Z,23.96
2018-08-13T19:05:31.750Z,23.92
2018-08-13T19:08:00.402Z,23.86
2018-08-13T19:10:29.115Z,23.82
2018-08-13T19:12:57.846Z,23.74
2018-08-13T19:15:27.555Z,23.65
2018-08-13T19:17:56.278Z,23.57
2018-08-13T19:20:25.100Z,23.49
2018-08-13T19:22:53.758Z,23.42
2018-08-13T19:25:23.863Z,23.34
2018-08-13T19:27:52.499Z,23.26
2018-08-13T19:30:22.090Z,23.16
2018-08-13T19:32:51.275Z,23.02
2018-08-13T19:35:20.021Z,22.89
2018-08-13T19:37:49.036Z,22.77
2018-08-13T19:40:19.980Z,22.69
2018-08-13T19:42:49.409Z,22.55
2018-08-13T19:45:18.789Z,22.46
2018-08-13T19:47:47.827Z,22.37
2018-08-13T19:50:16.777Z,22.29
2018-08-13T19:52:46.620Z,22.21
2018-08-13T19:55:15.693Z,22.13
2018-08-13T19:57:44.340Z,21.88
2018-08-13T20:00:18.923Z,22.01
2018-08-13T20:02:48.016Z,21.96
2018-08-13T20:05:17.114Z,21.90
2018-08-13T20:07:45.858Z,21.82
2018-08-13T20:10:15.377Z,21.76
2018-08-13T20:12:44.763Z,21.72
2018-08-13T20:15:13.437Z,21.65
2018-08-13T20:17:42.304Z,21.58
2018-08-13T20:20:15.956Z,21.50
2018-08-13T20:22:45.449Z,21.40
2018-08-13T20:25:17.245Z,21.32
2018-08-13T20:27:46.356Z,21.23
2018-08-13T20:30:23.602Z,21.15
2018-08-13T20:32:53.172Z,21.12
2018-08-13T20:35:22.030Z,21.08
2018-08-13T20:37:51.014Z,21.07
2018-08-13T20:40:20.729Z,21.03
2018-08-13T20:42:49.886Z,20.94
2018-08-13T20:45:19.853Z,20.92
2018-08-13T20:47:48.859Z,20.90
2018-08-13T20:50:19.637Z,20.87
2018-08-13T20:52:49.194Z,20.86
2018-08-13T20:55:19.524Z,20.78
2018-08-13T20:57:48.901Z,20.74
2018-08-13T21:00:19.025Z,20.72
2018-08-13T21:02:48.116Z,20.68
2018-08-13T21:05:17.271Z,20.66
2018-08-13T21:07:46.661Z,20.63
2018-08-13T21:10:17.844Z,20.61
2018-08-13T21:12:46.515Z,20.59
2018-08-13T21:15:15.870Z,20.51
2018-08-13T21:17:44.665Z,20.49
2018-08-13T21:20:28.900Z,20.46
2018-08-13T21:23:11.882Z,20.40
2018-08-13T21:25:40.693Z,20.36
2018-08-13T21:28:09.394Z,20.36
2018-08-13T21:30:38.021Z,20.40
2018-08-13T21:33:06.659Z,20.35
2018-08-13T21:35:35.316Z,20.31
2018-08-13T21:38:04.005Z,20.27
2018-08-13T21:40:32.658Z,20.25
2018-08-13T21:43:01.366Z,20.24
2018-08-13T21:45:30.002Z,20.19
2018-08-13T21:47:58.656Z,20.16
2018-08-13T21:50:27.358Z,20.06
2018-08-13T21:52:55.976Z,20.06
2018-08-13T21:55:24.649Z,20.07
2018-08-13T21:57:53.283Z,20.06
2018-08-13T22:00:29.876Z,20.04
2018-08-13T22:03:00.788Z,20.02
2018-08-13T22:05:29.383Z,19.98
2018-08-13T22:07:58.200Z,19.94
2018-08-13T22:10:26.871Z,19.91
2018-08-13T22:12:55.708Z,19.86
2018-08-13T22:15:27.216Z,19.78
2018-08-13T22:17:57.308Z,19.75
2018-08-13T22:20:26.534Z,19.69
2018-08-13T22:23:02.205Z,19.66
2018-08-13T22:25:32.403Z,19.68
2018-08-13T22:28:01.455Z,19.67
2018-08-13T22:30:31.649Z,19.67
2018-08-13T22:33:00.363Z,19.68
2018-08-13T22:35:29.085Z,19.68
2018-08-13T22:37:57.710Z,19.66
2018-08-13T22:40:26.394Z,19.67
2018-08-13T22:42:55.121Z,19.66
2018-08-13T22:45:24.422Z,19.63
2018-08-13T22:47:53.121Z,19.63
2018-08-13T22:50:21.813Z,19.60
2018-08-13T22:52:50.457Z,19.61
2018-08-13T22:55:19.607Z,19.56
2018-08-13T22:57:48.667Z,19.51
2018-08-13T23:00:18.502Z,19.45
2018-08-13T23:02:47.936Z,19.48
2018-08-13T23:05:22.996Z,19.37
2018-08-13T23:07:51.761Z,19.38
2018-08-13T23:10:21.650Z,19.31
2018-08-13T23:12:51.527Z,19.27
2018-08-13T23:15:20.654Z,19.23
2018-08-13T23:17:49.358Z,19.22
2018-08-13T23:20:20.738Z,19.16
2018-08-13T23:23:04.295Z,19.08
2018-08-13T23:25:36.031Z,19.06
2018-08-13T23:28:06.918Z,19.02
2018-08-13T23:30:35.573Z,19.00
2018-08-13T23:33:04.319Z,18.96
2018-08-13T23:35:33.055Z,18.94
2018-08-13T23:38:01.747Z,18.92
2018-08-13T23:40:30.611Z,18.94
2018-08-13T23:42:59.290Z,18.96
2018-08-13T23:45:29.338Z,18.93
2018-08-13T23:47:58.039Z,18.88
2018-08-13T23:50:27.470Z,18.87
2018-08-13T23:52:58.355Z,18.89
2018-08-13T23:55:34.796Z,18.89
2018-08-13T23:58:04.362Z,18.92
